Time;durP1;ratioP1;P1;durP2;ratioP2;P2;SDS_P1;SDS_P2;PMS_P1;PMS_P2;Temp;Humidity;BMP_temperature;BMP_pressure;BME280_temperature;BME280_humidity;BME280_pressure;Samples;Min_cycle;Max_cycle;Signal;HPM_P1;HPM_P2
2023/08/17 00:01:47;;;;;;;2.75;1.23;;;;;;;;;;5111226;28;20052;-58
2023/08/17 00:04:15;;;;;;;3.17;1.20;;;;;;;;;;5108120;28;20058;-59
2023/08/17 00:06:42;;;;;;;2.35;1.42;;;;;;;;;;5112035;28;20055;-60
2023/08/17 00:09:08;;;;;;;2.30;1.33;;;;;;;;;;5099524;28;20404;-59
2023/08/17 00:11:36;;;;;;;2.17;1.25;;;;;;;;;;5111023;28;20055;-59
2023/08/17 00:14:03;;;;;;;4.57;1.52;;;;;;;;;;5111739;28;20047;-59
2023/08/17 00:16:30;;;;;;;2.33;1.52;;;;;;;;;;5112319;28;20051;-59
2023/08/17 00:18:57;;;;;;;2.50;1.30;;;;;;;;;;5127165;28;20478;-59
2023/08/17 00:21:25;;;;;;;2.67;1.58;;;;;;;;;;5111823;28;20051;-59
2023/08/17 00:23:52;;;;;;;5.82;2.20;;;;;;;;;;5109449;28;20055;-59
2023/08/17 00:26:18;;;;;;;3.17;1.70;;;;;;;;;;5109397;28;20063;-59
2023/08/17 00:28:45;;;;;;;2.25;1.63;;;;;;;;;;5092155;28;20059;-59
2023/08/17 00:31:12;;;;;;;2.83;1.40;;;;;;;;;;5109901;28;20052;-59
2023/08/17 00:33:39;;;;;;;2.20;1.30;;;;;;;;;;5091707;28;20060;-59
2023/08/17 00:36:06;;;;;;;2.13;1.58;;;;;;;;;;5109899;28;20070;-58
2023/08/17 00:38:34;;;;;;;1.98;1.45;;;;;;;;;;5101389;28;20393;-60
2023/08/17 00:41:01;;;;;;;1.90;1.30;;;;;;;;;;5115975;28;20416;-59
2023/08/17 00:43:29;;;;;;;3.58;1.38;;;;;;;;;;5095529;28;20079;-59
2023/08/17 00:45:56;;;;;;;3.45;1.60;;;;;;;;;;5110651;28;20055;-59
2023/08/17 00:48:23;;;;;;;1.98;1.25;;;;;;;;;;5098163;28;20044;-59
2023/08/17 00:50:51;;;;;;;4.10;1.38;;;;;;;;;;5106862;28;20059;-60
2023/08/17 00:53:18;;;;;;;3.28;1.50;;;;;;;;;;5114086;27;20534;-59
2023/08/17 00:55:46;;;;;;;2.22;1.45;;;;;;;;;;5135893;27;20058;-59
2023/08/17 00:58:13;;;;;;;4.10;1.38;;;;;;;;;;5135996;27;20156;-59
2023/08/17 01:00:40;;;;;;;3.65;1.65;;;;;;;;;;5136000;27;20062;-59
2023/08/17 01:03:06;;;;;;;1.70;1.30;;;;;;;;;;5135593;27;20058;-59
2023/08/17 01:05:33;;;;;;;2.80;1.55;;;;;;;;;;5135703;27;20445;-59
2023/08/17 01:08:00;;;;;;;5.68;1.58;;;;;;;;;;5122749;27;20047;-60
2023/08/17 01:10:30;;;;;;;2.22;1.40;;;;;;;;;;5112338;28;20047;-59
2023/08/17 01:13:04;;;;;;;3.08;1.00;;;;;;;;;;5115480;28;20055;-59
2023/08/17 01:15:34;;;;;;;1.67;1.13;;;;;;;;;;5115214;28;20412;-59
2023/08/17 01:18:05;;;;;;;1.67;1.20;;;;;;;;;;5110105;28;20594;-59
2023/08/17 01:20:35;;;;;;;2.47;1.17;;;;;;;;;;5115487;28;20416;-59
2023/08/17 01:23:05;;;;;;;3.70;1.75;;;;;;;;;;5112635;28;20056;-59
2023/08/17 01:25:36;;;;;;;2.85;1.38;;;;;;;;;;5115060;28;20122;-59
2023/08/17 01:28:03;;;;;;;2.08;1.20;;;;;;;;;;5114455;28;20048;-59
2023/08/17 01:30:31;;;;;;;2.28;1.33;;;;;;;;;;5114713;28;20468;-59
2023/08/17 01:32:59;;;;;;;1.60;0.90;;;;;;;;;;5113835;28;20134;-59
2023/08/17 01:35:30;;;;;;;3.22;1.10;;;;;;;;;;5114267;28;20086;-59
2023/08/17 01:37:59;;;;;;;2.75;1.60;;;;;;;;;;5112720;28;20059;-59
2023/08/17 01:40:28;;;;;;;3.25;1.42;;;;;;;;;;5105618;28;20059;-59
2023/08/17 01:42:55;;;;;;;1.92;1.25;;;;;;;;;;5114822;28;20047;-59
2023/08/17 01:45:22;;;;;;;2.10;1.13;;;;;;;;;;5114773;28;20078;-59
2023/08/17 01:47:49;;;;;;;1.60;1.10;;;;;;;;;;5114055;28;20496;-59
2023/08/17 01:50:16;;;;;;;2.60;1.20;;;;;;;;;;5113441;28;20055;-59
2023/08/17 01:52:43;;;;;;;2.80;1.77;;;;;;;;;;5113451;28;20051;-61
2023/08/17 01:55:10;;;;;;;2.60;1.27;;;;;;;;;;5112911;28;20074;-59
2023/08/17 01:57:38;;;;;;;1.83;1.08;;;;;;;;;;5113988;28;20055;-59
2023/08/17 02:00:05;;;;;;;2.03;1.20;;;;;;;;;;5114617;28;20047;-60
2023/08/17 02:02:32;;;;;;;2.10;1.40;;;;;;;;;;5114402;28;20051;-59
2023/08/17 02:04:59;;;;;;;3.40;1.27;;;;;;;;;;5114422;28;20047;-59
2023/08/17 02:07:26;;;;;;;1.50;1.10;;;;;;;;;;5113310;28;20055;-59
2023/08/17 02:09:52;;;;;;;2.65;1.35;;;;;;;;;;5112045;28;20052;-60
2023/08/17 02:12:19;;;;;;;1.60;1.40;;;;;;;;;;5113850;28;20047;-60
2023/08/17 02:14:47;;;;;;;1.90;1.08;;;;;;;;;;5113968;28;20047;-60
2023/08/17 02:17:16;;;;;;;1.98;1.40;;;;;;;;;;5113814;28;20047;-60
2023/08/17 02:19:43;;;;;;;2.38;1.23;;;;;;;;;;5107380;28;20048;-60
2023/08/17 02:22:10;;;;;;;3.17;1.48;;;;;;;;;;5112006;28;20051;-60
2023/08/17 02:24:37;;;;;;;3.40;1.75;;;;;;;;;;5111519;28;20051;-60
2023/08/17 02:27:04;;;;;;;2.53;1.63;;;;;;;;;;5114137;28;20051;-60
2023/08/17 02:29:31;;;;;;;2.55;1.30;;;;;;;;;;5113498;28;20440;-59
2023/08/17 02:31:59;;;;;;;2.78;1.73;;;;;;;;;;5113449;28;20055;-59
2023/08/17 02:34:26;;;;;;;3.50;1.83;;;;;;;;;;5112900;28;20059;-60
2023/08/17 02:36:52;;;;;;;2.28;1.50;;;;;;;;;;5113877;28;20051;-60
2023/08/17 02:39:19;;;;;;;3.17;1.70;;;;;;;;;;5110835;28;20052;-59
2023/08/17 02:41:49;;;;;;;4.45;1.20;;;;;;;;;;5113663;28;20434;-60
2023/08/17 02:44:16;;;;;;;3.70;1.73;;;;;;;;;;5113212;28;20066;-60
2023/08/17 02:46:42;;;;;;;2.00;1.33;;;;;;;;;;5113158;28;20063;-60
2023/08/17 02:49:11;;;;;;;2.40;1.75;;;;;;;;;;5113063;28;20044;-60
2023/08/17 02:51:37;;;;;;;2.85;1.65;;;;;;;;;;5113325;28;20056;-60
2023/08/17 02:54:05;;;;;;;4.53;2.10;;;;;;;;;;5110509;28;20056;-60
2023/08/17 02:56:31;;;;;;;3.55;1.92;;;;;;;;;;5113443;28;20480;-60
2023/08/17 02:58:58;;;;;;;3.35;1.80;;;;;;;;;;5117307;27;20467;-60
2023/08/17 03:01:25;;;;;;;3.70;1.75;;;;;;;;;;5132976;27;20055;-60
2023/08/17 03:03:52;;;;;;;3.42;1.60;;;;;;;;;;5128061;27;20043;-60
2023/08/17 03:06:20;;;;;;;3.65;1.80;;;;;;;;;;5112883;28;20059;-60
2023/08/17 03:08:47;;;;;;;2.90;1.80;;;;;;;;;;5109840;28;20048;-60
2023/08/17 03:11:13;;;;;;;3.65;1.92;;;;;;;;;;5104554;28;20051;-60
2023/08/17 03:13:40;;;;;;;5.03;2.63;;;;;;;;;;5112526;28;20051;-60
2023/08/17 03:16:07;;;;;;;3.63;2.20;;;;;;;;;;5104728;28;20051;-60
2023/08/17 03:18:34;;;;;;;4.45;2.42;;;;;;;;;;5113004;28;20047;-60
2023/08/17 03:21:01;;;;;;;5.30;2.28;;;;;;;;;;5104287;28;20055;-60
2023/08/17 03:23:29;;;;;;;4.13;2.30;;;;;;;;;;5110417;28;20063;-60
2023/08/17 03:25:55;;;;;;;4.45;2.92;;;;;;;;;;5112875;28;20062;-60
2023/08/17 03:28:22;;;;;;;3.28;2.05;;;;;;;;;;5111723;28;20055;-60
2023/08/17 03:30:49;;;;;;;5.55;2.85;;;;;;;;;;5104493;28;20054;-59
2023/08/17 03:33:16;;;;;;;3.05;1.85;;;;;;;;;;5112590;28;20362;-59
2023/08/17 03:35:43;;;;;;;4.13;2.50;;;;;;;;;;5097482;28;20078;-60
2023/08/17 03:38:09;;;;;;;3.95;1.77;;;;;;;;;;5083934;28;20405;-61
2023/08/17 03:40:38;;;;;;;2.95;2.00;;;;;;;;;;5092064;28;20401;-60
2023/08/17 03:43:04;;;;;;;4.18;2.45;;;;;;;;;;5092600;28;20058;-60
2023/08/17 03:45:31;;;;;;;4.00;2.03;;;;;;;;;;5091789;28;20166;-60
2023/08/17 03:47:58;;;;;;;3.95;2.15;;;;;;;;;;5092169;28;20051;-60
2023/08/17 03:50:27;;;;;;;3.03;2.60;;;;;;;;;;5092113;28;20044;-59
2023/08/17 03:52:53;;;;;;;4.03;2.27;;;;;;;;;;5089915;28;20044;-60
2023/08/17 03:55:20;;;;;;;4.38;2.97;;;;;;;;;;5092460;28;20052;-60
2023/08/17 03:57:48;;;;;;;2.72;1.90;;;;;;;;;;5091902;28;20048;-60
2023/08/17 04:00:15;;;;;;;3.80;2.63;;;;;;;;;;5091954;28;20413;-60
2023/08/17 04:02:42;;;;;;;3.38;2.47;;;;;;;;;;5091894;28;20466;-60
2023/08/17 04:05:09;;;;;;;5.43;2.22;;;;;;;;;;5091570;28;20056;-60
2023/08/17 04:07:36;;;;;;;3.90;2.58;;;;;;;;;;5089915;28;20056;-59
2023/08/17 04:10:05;;;;;;;3.60;2.22;;;;;;;;;;5091876;28;20048;-59
2023/08/17 04:12:32;;;;;;;3.60;2.60;;;;;;;;;;5092286;28;20059;-59
2023/08/17 04:15:00;;;;;;;3.47;2.38;;;;;;;;;;5095352;28;20067;-59
2023/08/17 04:17:27;;;;;;;2.83;2.15;;;;;;;;;;5094904;28;20060;-58
2023/08/17 04:19:54;;;;;;;3.47;2.40;;;;;;;;;;5095613;28;20051;-59
2023/08/17 04:22:20;;;;;;;6.60;2.00;;;;;;;;;;5093093;28;20068;-59
2023/08/17 04:24:47;;;;;;;3.83;2.17;;;;;;;;;;5087977;28;20052;-59
2023/08/17 04:27:14;;;;;;;3.53;2.45;;;;;;;;;;5094060;28;20401;-59
2023/08/17 04:29:41;;;;;;;4.45;2.10;;;;;;;;;;5089706;28;20049;-59
2023/08/17 04:32:14;;;;;;;3.60;2.35;;;;;;;;;;5092861;28;20362;-60
2023/08/17 04:34:42;;;;;;;3.20;1.95;;;;;;;;;;5100198;28;20497;-59
2023/08/17 04:37:09;;;;;;;3.10;1.83;;;;;;;;;;5115273;28;20506;-58
2023/08/17 04:39:35;;;;;;;3.38;2.10;;;;;;;;;;5111437;28;20043;-59
2023/08/17 04:42:04;;;;;;;5.82;2.60;;;;;;;;;;5112926;28;20043;-59
2023/08/17 04:44:31;;;;;;;3.53;2.25;;;;;;;;;;5110435;28;20051;-59
2023/08/17 04:46:57;;;;;;;3.70;2.70;;;;;;;;;;5115798;28;20413;-60
2023/08/17 04:49:26;;;;;;;3.45;2.78;;;;;;;;;;5115215;28;20044;-59
2023/08/17 04:51:52;;;;;;;4.25;2.58;;;;;;;;;;5115177;28;20055;-60
2023/08/17 04:54:19;;;;;;;3.83;2.03;;;;;;;;;;5112433;28;20056;-59
2023/08/17 04:56:46;;;;;;;3.13;2.00;;;;;;;;;;5113743;28;20058;-59
2023/08/17 04:59:13;;;;;;;6.30;2.67;;;;;;;;;;5105200;28;20053;-60
2023/08/17 05:01:40;;;;;;;4.43;2.65;;;;;;;;;;5112517;28;20058;-59
2023/08/17 05:04:07;;;;;;;3.40;2.25;;;;;;;;;;5112226;28;20103;-60
2023/08/17 05:06:36;;;;;;;4.00;2.00;;;;;;;;;;5113694;28;20052;-60
2023/08/17 05:09:03;;;;;;;3.83;2.47;;;;;;;;;;5109034;28;20051;-59
2023/08/17 05:11:30;;;;;;;4.95;2.75;;;;;;;;;;5115019;28;20412;-59
2023/08/17 05:13:57;;;;;;;5.00;2.60;;;;;;;;;;5114816;28;20423;-59
2023/08/17 05:16:24;;;;;;;4.70;2.42;;;;;;;;;;5112963;28;20146;-59
2023/08/17 05:18:51;;;;;;;4.20;2.38;;;;;;;;;;5110767;28;20429;-59
2023/08/17 05:21:18;;;;;;;3.90;2.60;;;;;;;;;;5113220;28;20040;-60
2023/08/17 05:23:46;;;;;;;4.30;2.53;;;;;;;;;;5108119;28;20056;-58
2023/08/17 05:26:13;;;;;;;3.83;2.55;;;;;;;;;;5109653;28;20043;-59
2023/08/17 05:28:40;;;;;;;6.32;2.88;;;;;;;;;;5113403;28;20063;-60
2023/08/17 05:31:07;;;;;;;4.00;2.72;;;;;;;;;;5114617;28;20055;-60
2023/08/17 05:33:34;;;;;;;5.95;2.88;;;;;;;;;;5113125;28;20048;-60
2023/08/17 05:36:01;;;;;;;5.53;2.70;;;;;;;;;;5113847;28;20059;-60
2023/08/17 05:38:27;;;;;;;5.57;3.35;;;;;;;;;;5103898;27;20047;-59
2023/08/17 05:40:59;;;;;;;5.50;2.72;;;;;;;;;;5104543;28;20040;-60
2023/08/17 05:43:26;;;;;;;4.50;2.92;;;;;;;;;;5112861;28;20056;-60
2023/08/17 05:45:53;;;;;;;3.47;2.45;;;;;;;;;;5102852;28;20051;-59
2023/08/17 05:48:20;;;;;;;5.85;3.00;;;;;;;;;;5109121;28;20519;-60
2023/08/17 05:50:47;;;;;;;4.57;2.75;;;;;;;;;;5111690;28;20460;-59
2023/08/17 05:53:14;;;;;;;4.90;3.20;;;;;;;;;;5108849;28;20059;-59
2023/08/17 05:55:40;;;;;;;3.75;2.33;;;;;;;;;;5116889;27;20048;-59
2023/08/17 05:58:09;;;;;;;3.40;2.50;;;;;;;;;;5111502;28;20047;-60
2023/08/17 06:00:35;;;;;;;5.93;2.95;;;;;;;;;;5111724;28;20039;-60
2023/08/17 06:03:02;;;;;;;5.00;2.67;;;;;;;;;;5113030;28;20508;-60
2023/08/17 06:05:29;;;;;;;7.20;3.17;;;;;;;;;;5112927;28;20075;-60
2023/08/17 06:07:56;;;;;;;4.28;2.72;;;;;;;;;;5110251;27;20055;-60
2023/08/17 06:10:25;;;;;;;4.38;2.55;;;;;;;;;;5112656;28;20071;-60
2023/08/17 06:12:52;;;;;;;6.03;3.47;;;;;;;;;;5120634;27;20522;-59
2023/08/17 06:15:20;;;;;;;4.88;2.42;;;;;;;;;;5115429;27;20052;-60
2023/08/17 06:17:49;;;;;;;4.13;2.60;;;;;;;;;;5100415;28;20051;-59
2023/08/17 06:20:16;;;;;;;;;;;;;;;;;;5111160;28;20047;-60
2023/08/17 06:22:43;;;;;;;5.35;3.10;;;;;;;;;;5110701;28;19927;-60
2023/08/17 06:25:09;;;;;;;4.75;3.65;;;;;;;;;;5109889;28;20684;-60
2023/08/17 06:27:36;;;;;;;4.35;2.78;;;;;;;;;;5111043;28;20043;-59
2023/08/17 06:30:03;;;;;;;3.72;2.85;;;;;;;;;;5107246;28;20048;-59
2023/08/17 06:32:32;;;;;;;6.53;3.00;;;;;;;;;;5109629;28;20043;-60
2023/08/17 06:34:58;;;;;;;7.80;3.13;;;;;;;;;;5110581;28;20067;-60
2023/08/17 06:37:25;;;;;;;5.60;3.25;;;;;;;;;;5111504;28;20052;-59
2023/08/17 06:39:52;;;;;;;4.00;2.30;;;;;;;;;;5113013;28;20055;-60
2023/08/17 06:42:19;;;;;;;4.65;2.33;;;;;;;;;;5112927;28;20052;-60
2023/08/17 06:44:46;;;;;;;4.65;2.45;;;;;;;;;;5113413;28;20063;-60
2023/08/17 06:47:12;;;;;;;4.07;2.55;;;;;;;;;;5113285;28;20503;-59
2023/08/17 06:49:41;;;;;;;3.45;2.28;;;;;;;;;;5113250;28;20051;-60
2023/08/17 06:52:07;;;;;;;4.00;2.08;;;;;;;;;;5112511;28;20066;-59
2023/08/17 06:54:35;;;;;;;4.35;3.05;;;;;;;;;;5112576;28;20066;-60
2023/08/17 06:57:02;;;;;;;6.07;2.90;;;;;;;;;;5112747;28;20051;-60
2023/08/17 06:59:28;;;;;;;5.20;2.80;;;;;;;;;;5113021;28;20051;-60
2023/08/17 07:01:55;;;;;;;8.52;4.13;;;;;;;;;;5113018;28;20496;-60
2023/08/17 07:04:22;;;;;;;6.13;2.95;;;;;;;;;;5113116;28;20055;-60
2023/08/17 07:06:50;;;;;;;6.38;4.00;;;;;;;;;;5112545;28;20502;-60
2023/08/17 07:09:18;;;;;;;5.75;3.83;;;;;;;;;;5113193;28;20064;-60
2023/08/17 07:11:45;;;;;;;7.63;4.22;;;;;;;;;;5113055;28;20052;-60
2023/08/17 07:14:12;;;;;;;5.22;3.28;;;;;;;;;;5112554;28;20051;-60
2023/08/17 07:16:39;;;;;;;7.40;3.97;;;;;;;;;;5113049;28;20059;-60
2023/08/17 07:19:06;;;;;;;5.38;3.65;;;;;;;;;;5112728;28;20047;-60
2023/08/17 07:21:33;;;;;;;4.40;3.03;;;;;;;;;;5112514;28;20058;-60
2023/08/17 07:24:12;;;;;;;4.28;2.70;;;;;;;;;;5112535;28;20058;-60
2023/08/17 07:26:38;;;;;;;4.25;2.63;;;;;;;;;;5124350;27;20054;-60
2023/08/17 07:29:05;;;;;;;4.28;2.78;;;;;;;;;;5132814;27;20051;-60
2023/08/17 07:31:33;;;;;;;5.40;2.67;;;;;;;;;;5133326;27;20051;-60
2023/08/17 07:34:00;;;;;;;4.72;3.20;;;;;;;;;;5132881;28;20058;-60
2023/08/17 07:36:27;;;;;;;4.65;2.70;;;;;;;;;;5133039;28;20417;-59
2023/08/17 07:38:54;;;;;;;3.97;2.58;;;;;;;;;;5132733;28;20051;-60
2023/08/17 07:41:22;;;;;;;4.93;2.80;;;;;;;;;;5133431;28;20055;-60
2023/08/17 07:43:49;;;;;;;5.07;2.80;;;;;;;;;;5132991;28;20055;-60
2023/08/17 07:46:15;;;;;;;5.15;3.17;;;;;;;;;;5133503;27;20051;-60
2023/08/17 07:48:42;;;;;;;3.78;2.50;;;;;;;;;;5136664;27;20066;-60
2023/08/17 07:51:09;;;;;;;4.20;2.60;;;;;;;;;;5137380;27;20054;-61
2023/08/17 07:53:36;;;;;;;4.95;2.53;;;;;;;;;;5137025;27;20411;-60
2023/08/17 07:56:03;;;;;;;4.47;2.50;;;;;;;;;;5117380;27;20051;-60
2023/08/17 07:58:31;;;;;;;5.03;2.83;;;;;;;;;;5116227;28;20054;-61
2023/08/17 08:00:58;;;;;;;4.85;2.72;;;;;;;;;;5116053;28;20108;-60
2023/08/17 08:03:26;;;;;;;4.80;2.83;;;;;;;;;;5115959;28;20070;-60
2023/08/17 08:05:53;;;;;;;4.43;2.58;;;;;;;;;;5116064;28;20056;-60
2023/08/17 08:08:19;;;;;;;5.13;3.05;;;;;;;;;;5116061;28;20409;-60
2023/08/17 08:10:46;;;;;;;4.55;2.55;;;;;;;;;;5116025;28;20063;-60
2023/08/17 08:13:14;;;;;;;3.42;2.60;;;;;;;;;;5115619;28;20070;-60
2023/08/17 08:15:42;;;;;;;4.90;2.67;;;;;;;;;;5115901;28;20074;-60
2023/08/17 08:18:08;;;;;;;5.28;2.40;;;;;;;;;;5116160;28;20047;-59
2023/08/17 08:20:35;;;;;;;4.28;2.33;;;;;;;;;;5116138;28;20408;-60
2023/08/17 08:23:03;;;;;;;5.28;2.63;;;;;;;;;;5116081;28;20051;-60
2023/08/17 08:25:30;;;;;;;4.07;2.35;;;;;;;;;;5117649;27;20495;-60
2023/08/17 08:27:56;;;;;;;4.28;2.58;;;;;;;;;;5136031;27;20169;-60
2023/08/17 08:30:23;;;;;;;3.75;2.38;;;;;;;;;;5136635;27;20055;-59
2023/08/17 08:32:52;;;;;;;3.70;2.35;;;;;;;;;;5136504;27;20054;-60
2023/08/17 08:35:19;;;;;;;3.85;2.10;;;;;;;;;;5135988;27;20055;-60
2023/08/17 08:37:48;;;;;;;4.35;2.53;;;;;;;;;;5136245;27;20483;-60
2023/08/17 08:40:15;;;;;;;6.28;3.33;;;;;;;;;;5136248;27;20055;-60
2023/08/17 08:42:42;;;;;;;4.18;2.88;;;;;;;;;;5135830;27;20069;-60
2023/08/17 08:45:09;;;;;;;4.10;3.03;;;;;;;;;;5136012;27;20488;-60
2023/08/17 08:47:37;;;;;;;4.50;2.58;;;;;;;;;;5135536;27;20062;-60
2023/08/17 08:50:05;;;;;;;5.95;2.67;;;;;;;;;;5135973;27;20054;-61
2023/08/17 08:52:36;;;;;;;5.18;2.72;;;;;;;;;;5135513;27;20058;-60
2023/08/17 08:55:07;;;;;;;9.68;3.13;;;;;;;;;;5135883;27;20058;-60
2023/08/17 08:57:35;;;;;;;4.45;3.35;;;;;;;;;;5136054;27;20058;-60
2023/08/17 09:00:02;;;;;;;5.32;3.28;;;;;;;;;;5135490;27;20550;-60
2023/08/17 09:02:29;;;;;;;5.43;3.22;;;;;;;;;;5136040;27;20074;-60
2023/08/17 09:04:56;;;;;;;5.10;2.75;;;;;;;;;;5135937;27;20078;-60
2023/08/17 09:07:24;;;;;;;7.03;3.20;;;;;;;;;;5135490;27;20054;-61
2023/08/17 09:09:52;;;;;;;3.30;2.25;;;;;;;;;;5135613;27;20047;-60
2023/08/17 09:12:18;;;;;;;4.35;2.97;;;;;;;;;;5135467;27;20065;-60
2023/08/17 09:14:45;;;;;;;4.30;2.45;;;;;;;;;;5135726;27;20466;-60
2023/08/17 09:17:12;;;;;;;5.70;2.90;;;;;;;;;;5135338;27;20059;-60
2023/08/17 09:19:39;;;;;;;4.85;2.63;;;;;;;;;;5135446;27;20051;-60
2023/08/17 09:22:06;;;;;;;5.05;3.20;;;;;;;;;;5135498;27;20071;-60
2023/08/17 09:24:37;;;;;;;5.50;2.90;;;;;;;;;;5135617;27;20479;-61
2023/08/17 09:27:04;;;;;;;4.25;2.22;;;;;;;;;;5135214;27;20375;-60
2023/08/17 09:29:36;;;;;;;3.88;2.35;;;;;;;;;;5134954;27;20051;-60
2023/08/17 09:32:05;;;;;;;5.40;2.40;;;;;;;;;;5135168;27;20484;-60
2023/08/17 09:34:32;;;;;;;5.60;3.13;;;;;;;;;;5134447;27;20140;-60
2023/08/17 09:37:03;;;;;;;6.32;3.05;;;;;;;;;;5135043;27;20058;-61
2023/08/17 09:39:29;;;;;;;5.57;3.10;;;;;;;;;;5135353;27;20051;-60
2023/08/17 09:41:58;;;;;;;3.45;2.42;;;;;;;;;;5135234;27;20051;-60
2023/08/17 09:44:24;;;;;;;5.13;2.45;;;;;;;;;;5134780;27;20051;-59
2023/08/17 09:46:51;;;;;;;4.55;2.58;;;;;;;;;;5134714;27;20051;-60
2023/08/17 09:49:18;;;;;;;4.50;2.67;;;;;;;;;;5134934;27;20403;-61
2023/08/17 09:51:45;;;;;;;3.78;2.13;;;;;;;;;;5134801;27;20162;-60
2023/08/17 09:54:20;;;;;;;4.78;2.83;;;;;;;;;;5134448;27;20082;-60
2023/08/17 09:56:47;;;;;;;4.20;2.35;;;;;;;;;;5134955;27;20062;-60
2023/08/17 09:59:15;;;;;;;5.95;3.17;;;;;;;;;;5134349;27;20385;-60
2023/08/17 10:01:43;;;;;;;5.75;2.67;;;;;;;;;;5134373;27;20047;-61
2023/08/17 10:04:10;;;;;;;5.50;2.80;;;;;;;;;;5134659;27;20058;-61
2023/08/17 10:06:40;;;;;;;3.30;2.50;;;;;;;;;;5134524;27;20074;-60
2023/08/17 10:09:07;;;;;;;3.42;2.25;;;;;;;;;;5134493;27;20146;-60
2023/08/17 10:11:36;;;;;;;4.28;2.22;;;;;;;;;;5133144;27;20058;-60
2023/08/17 10:14:06;;;;;;;3.63;1.73;;;;;;;;;;5134231;27;20059;-60
2023/08/17 10:16:40;;;;;;;4.75;2.03;;;;;;;;;;5134453;27;20491;-61
2023/08/17 10:19:14;;;;;;;3.90;2.38;;;;;;;;;;5133887;27;20055;-60
2023/08/17 10:21:44;;;;;;;3.50;2.40;;;;;;;;;;5134337;27;20058;-60
2023/08/17 10:24:11;;;;;;;4.50;2.42;;;;;;;;;;5133900;27;20046;-60
2023/08/17 10:26:39;;;;;;;4.45;2.53;;;;;;;;;;5134174;27;20476;-61
2023/08/17 10:29:07;;;;;;;4.15;2.05;;;;;;;;;;5134189;27;20058;-60
2023/08/17 10:31:36;;;;;;;3.97;2.15;;;;;;;;;;5134212;27;20530;-60
2023/08/17 10:34:03;;;;;;;3.72;2.30;;;;;;;;;;5133985;27;20059;-61
2023/08/17 10:36:31;;;;;;;3.13;1.90;;;;;;;;;;5133258;27;20051;-60
2023/08/17 10:39:18;;;;;;;2.90;1.93;;;;;;;;;;5133924;27;20054;-60
2023/08/17 10:41:47;;;;;;;5.10;2.22;;;;;;;;;;5133741;27;20085;-61
2023/08/17 10:44:14;;;;;;;3.22;2.00;;;;;;;;;;5133790;27;20488;-60
2023/08/17 10:46:43;;;;;;;2.92;1.80;;;;;;;;;;5133507;27;20062;-60
2023/08/17 10:49:25;;;;;;;4.05;2.00;;;;;;;;;;5133240;27;20042;-60
2023/08/17 10:52:00;;;;;;;4.55;2.10;;;;;;;;;;5133522;27;20084;-60
2023/08/17 10:54:37;;;;;;;3.00;1.90;;;;;;;;;;5133386;27;20055;-60
2023/08/17 10:57:18;;;;;;;3.88;2.15;;;;;;;;;;5133728;27;20059;-60
2023/08/17 10:59:45;;;;;;;3.05;1.52;;;;;;;;;;5132519;27;20320;-60
2023/08/17 11:02:13;;;;;;;3.20;2.28;;;;;;;;;;5133354;27;20054;-60
2023/08/17 11:04:40;;;;;;;3.38;2.05;;;;;;;;;;5133149;27;20066;-60
2023/08/17 11:07:14;;;;;;;4.55;2.13;;;;;;;;;;5133411;27;20476;-60
2023/08/17 11:09:42;;;;;;;3.70;2.08;;;;;;;;;;5133581;27;20051;-60
2023/08/17 11:12:25;;;;;;;3.40;1.92;;;;;;;;;;5133386;27;20058;-60
2023/08/17 11:14:52;;;;;;;2.15;1.48;;;;;;;;;;5133321;27;20055;-60
2023/08/17 11:17:22;;;;;;;3.80;1.95;;;;;;;;;;5133357;27;20062;-60
2023/08/17 11:19:51;;;;;;;2.85;1.35;;;;;;;;;;5133208;27;20058;-60
2023/08/17 11:22:18;;;;;;;2.17;1.50;;;;;;;;;;5132810;27;20396;-60
2023/08/17 11:24:45;;;;;;;2.60;1.55;;;;;;;;;;5133165;27;20055;-60
2023/08/17 11:27:12;;;;;;;3.22;2.00;;;;;;;;;;5132840;27;20047;-60
2023/08/17 11:29:39;;;;;;;2.88;1.38;;;;;;;;;;5132721;27;20074;-60
2023/08/17 11:32:06;;;;;;;4.53;2.25;;;;;;;;;;5132762;27;20058;-60
2023/08/17 11:34:36;;;;;;;2.78;1.63;;;;;;;;;;5132686;28;20055;-60
2023/08/17 11:37:03;;;;;;;2.13;1.35;;;;;;;;;;5132696;28;20055;-60
2023/08/17 11:39:33;;;;;;;3.17;1.60;;;;;;;;;;5132874;28;20062;-60
2023/08/17 11:42:00;;;;;;;2.50;1.50;;;;;;;;;;5132735;28;20062;-60
2023/08/17 11:44:27;;;;;;;2.15;1.60;;;;;;;;;;5132987;28;20043;-60
2023/08/17 11:46:54;;;;;;;2.95;1.58;;;;;;;;;;5133031;28;20051;-60
2023/08/17 11:49:22;;;;;;;2.53;1.60;;;;;;;;;;5133044;28;20051;-61
2023/08/17 11:51:50;;;;;;;2.88;1.98;;;;;;;;;;5132766;28;20051;-60
2023/08/17 11:54:17;;;;;;;2.42;1.50;;;;;;;;;;5132846;28;20055;-60
2023/08/17 11:56:44;;;;;;;2.55;1.65;;;;;;;;;;5133066;28;20062;-60
2023/08/17 11:59:13;;;;;;;3.25;2.15;;;;;;;;;;5132612;28;20051;-60
2023/08/17 12:01:40;;;;;;;2.80;1.73;;;;;;;;;;5132647;28;20051;-60
2023/08/17 12:04:07;;;;;;;2.63;1.90;;;;;;;;;;5132760;28;20502;-60
2023/08/17 12:06:34;;;;;;;3.53;1.75;;;;;;;;;;5133005;28;20055;-60
2023/08/17 12:09:05;;;;;;;2.80;1.80;;;;;;;;;;5132606;28;20048;-60
2023/08/17 12:11:32;;;;;;;3.75;2.05;;;;;;;;;;5132495;28;20058;-60
2023/08/17 12:13:59;;;;;;;3.72;2.35;;;;;;;;;;5132876;28;20051;-60
2023/08/17 12:16:25;;;;;;;4.60;2.05;;;;;;;;;;5132692;28;20055;-60
2023/08/17 12:18:53;;;;;;;2.90;2.00;;;;;;;;;;5132439;28;20078;-60
2023/08/17 12:21:20;;;;;;;4.00;2.05;;;;;;;;;;5132999;28;20430;-60
2023/08/17 12:23:48;;;;;;;4.20;2.65;;;;;;;;;;5132440;28;20051;-60
2023/08/17 12:26:20;;;;;;;3.75;2.10;;;;;;;;;;5132179;28;20062;-60
2023/08/17 12:28:47;;;;;;;4.07;2.03;;;;;;;;;;5132389;28;20051;-60
2023/08/17 12:31:14;;;;;;;3.72;1.90;;;;;;;;;;5132760;28;20058;-60
2023/08/17 12:33:40;;;;;;;2.88;1.88;;;;;;;;;;5133715;27;20047;-60
2023/08/17 12:36:07;;;;;;;3.45;1.83;;;;;;;;;;5135755;27;20526;-60
2023/08/17 12:38:34;;;;;;;1.98;1.25;;;;;;;;;;5136349;27;20054;-61
2023/08/17 12:41:01;;;;;;;5.35;2.28;;;;;;;;;;5136215;27;20074;-61
2023/08/17 12:43:29;;;;;;;2.67;1.63;;;;;;;;;;5136100;27;20043;-60
2023/08/17 12:45:56;;;;;;;2.70;1.90;;;;;;;;;;5136544;27;20055;-61
2023/08/17 12:48:23;;;;;;;4.22;2.55;;;;;;;;;;5136270;27;20058;-60
2023/08/17 12:50:49;;;;;;;3.90;2.20;;;;;;;;;;5136117;27;20475;-60
2023/08/17 12:53:16;;;;;;;3.05;1.77;;;;;;;;;;5135548;27;20047;-60
2023/08/17 12:55:43;;;;;;;2.63;1.80;;;;;;;;;;5136148;27;20058;-60
2023/08/17 12:58:10;;;;;;;3.42;1.90;;;;;;;;;;5136097;27;20062;-60
2023/08/17 13:00:38;;;;;;;3.22;1.83;;;;;;;;;;5136078;27;20377;-60
2023/08/17 13:03:05;;;;;;;4.32;2.30;;;;;;;;;;5136047;27;20047;-60
2023/08/17 13:05:33;;;;;;;2.95;2.13;;;;;;;;;;5135558;27;20051;-59
2023/08/17 13:08:00;;;;;;;3.35;1.95;;;;;;;;;;5135547;27;20518;-60
2023/08/17 13:10:26;;;;;;;2.42;2.13;;;;;;;;;;5135703;27;20062;-60
2023/08/17 13:12:56;;;;;;;3.35;1.98;;;;;;;;;;5135234;27;20055;-60
2023/08/17 13:15:23;;;;;;;3.47;2.03;;;;;;;;;;5135503;27;20058;-60
2023/08/17 13:17:51;;;;;;;3.45;2.20;;;;;;;;;;5135378;27;20058;-60
2023/08/17 13:20:18;;;;;;;3.08;2.03;;;;;;;;;;5135638;27;20054;-60
2023/08/17 13:22:45;;;;;;;3.30;2.15;;;;;;;;;;5135208;27;20054;-60
2023/08/17 13:25:12;;;;;;;2.97;1.65;;;;;;;;;;5135622;27;20067;-60
2023/08/17 13:27:38;;;;;;;3.55;1.58;;;;;;;;;;5135621;27;20047;-60
2023/08/17 13:30:06;;;;;;;3.13;2.03;;;;;;;;;;5135568;27;20399;-60
2023/08/17 13:32:33;;;;;;;4.55;2.30;;;;;;;;;;5135211;27;20381;-60
2023/08/17 13:35:02;;;;;;;4.13;2.25;;;;;;;;;;5134591;27;20055;-60
2023/08/17 13:37:28;;;;;;;3.92;2.42;;;;;;;;;;5134882;27;20051;-60
2023/08/17 13:39:55;;;;;;;4.15;2.03;;;;;;;;;;5135164;27;20054;-60
2023/08/17 13:42:22;;;;;;;3.70;2.47;;;;;;;;;;5134526;27;20090;-61
2023/08/17 13:44:49;;;;;;;2.83;1.88;;;;;;;;;;5134710;27;20051;-60
2023/08/17 13:47:16;;;;;;;4.28;2.30;;;;;;;;;;5134658;27;20062;-60
2023/08/17 13:49:42;;;;;;;3.33;2.20;;;;;;;;;;5134668;27;20055;-60
2023/08/17 13:52:10;;;;;;;3.00;2.13;;;;;;;;;;5134571;27;20047;-60
2023/08/17 13:54:37;;;;;;;2.55;2.10;;;;;;;;;;5116028;27;20059;-60
2023/08/17 13:57:04;;;;;;;2.63;1.48;;;;;;;;;;5113671;28;20055;-60
2023/08/17 13:59:31;;;;;;;4.70;1.98;;;;;;;;;;5113677;28;20052;-60
2023/08/17 14:01:58;;;;;;;4.13;2.05;;;;;;;;;;5113601;28;20055;-60
2023/08/17 14:04:25;;;;;;;4.18;2.20;;;;;;;;;;5113700;28;20050;-60
2023/08/17 14:06:52;;;;;;;2.33;1.75;;;;;;;;;;5113979;28;20058;-61
2023/08/17 14:09:20;;;;;;;4.28;2.83;;;;;;;;;;5113687;28;20059;-61
2023/08/17 14:11:47;;;;;;;4.45;2.28;;;;;;;;;;5113984;28;20055;-60
2023/08/17 14:14:13;;;;;;;4.22;2.60;;;;;;;;;;5113301;28;20059;-60
2023/08/17 14:16:40;;;;;;;3.13;1.67;;;;;;;;;;5113859;28;20412;-60
2023/08/17 14:19:07;;;;;;;4.85;2.05;;;;;;;;;;5113536;28;20063;-60
2023/08/17 14:21:34;;;;;;;3.38;2.20;;;;;;;;;;5113635;28;20059;-60
2023/08/17 14:24:00;;;;;;;3.90;2.03;;;;;;;;;;5113128;28;20074;-60
2023/08/17 14:26:29;;;;;;;3.67;2.10;;;;;;;;;;5113182;28;20048;-60
2023/08/17 14:28:55;;;;;;;3.78;2.25;;;;;;;;;;5113579;28;20054;-61
2023/08/17 14:31:22;;;;;;;3.63;2.25;;;;;;;;;;5113612;28;20055;-61
2023/08/17 14:33:49;;;;;;;6.10;2.30;;;;;;;;;;5113041;28;20074;-60
2023/08/17 14:36:16;;;;;;;4.32;1.80;;;;;;;;;;5094677;28;20416;-60
2023/08/17 14:38:43;;;;;;;2.85;2.03;;;;;;;;;;5093276;28;20067;-60
2023/08/17 14:41:09;;;;;;;3.50;1.83;;;;;;;;;;5093015;28;20052;-60
2023/08/17 14:43:38;;;;;;;4.40;2.28;;;;;;;;;;5092687;28;20063;-60
2023/08/17 14:46:04;;;;;;;3.63;2.42;;;;;;;;;;5093174;28;20052;-60